< Typhoon 201108 2011 Season Typhoon 201110 >
Typhoon 201109 (MUIFA)
General InformationTrack Information on Google MapsDetailed Wind InformationAccess Analytics MapList of All Images || NewsDisaster Info.WeblogTrackbackTyphoon FrontTwiphoonTyphoon Now!Typhoon ImaginationResourceGoogle EarthGE AnimationAtom FeedGeoJSON
Detalied Best Track (Time Zone = UTC)
Year Month Day Hour Lat. Long. Pressure (hPa) Wind (kt) Class Image Chart
2011 7 27 00 10.0 142.0 1006 0 2 Image Chart
2011 7 27 06 10.6 140.7 1006 0 2 Image Chart
2011 7 27 12 11.0 139.1 1006 0 2 Image Chart
2011 7 27 18 11.2 137.5 1004 0 2 Image Chart
2011 7 28 00 11.4 135.9 1002 0 2 Image Chart
2011 7 28 06 11.5 135.0 998 35 3 Image Chart
2011 7 28 12 11.6 134.1 996 40 3 Image Chart
2011 7 28 18 11.8 133.8 992 45 3 Image Chart
2011 7 29 00 12.2 133.9 990 45 3 Image Chart
2011 7 29 06 13.0 134.1 990 45 3 Image Chart
2011 7 29 12 13.7 134.2 985 50 4 Image Chart
2011 7 29 18 14.5 134.2 980 60 4 Image Chart
2011 7 30 00 15.7 133.9 970 65 5 Image Chart
2011 7 30 06 16.2 133.1 960 75 5 Image Chart
2011 7 30 12 16.5 132.7 940 90 5 Image Chart
2011 7 30 18 16.6 132.4 930 95 5 Image Chart
2011 7 31 00 16.9 132.6 930 95 5 Image Chart
2011 7 31 06 17.2 132.9 930 95 5 Image Chart
2011 7 31 12 17.7 133.5 930 95 5 Image Chart
2011 7 31 18 18.5 133.5 930 95 5 Image Chart
2011 8 1 00 18.9 133.7 935 90 5 Image Chart
2011 8 1 06 19.8 134.1 945 85 5 Image Chart
2011 8 1 12 20.6 134.2 945 85 5 Image Chart
2011 8 1 18 21.4 134.2 945 85 5 Image Chart
2011 8 2 00 22.0 134.2 945 85 5 Image Chart
2011 8 2 06 22.7 134.2 945 85 5 Image Chart
2011 8 2 12 23.3 133.8 945 85 5 Image Chart
2011 8 2 18 23.8 133.3 945 85 5 Image Chart
2011 8 3 00 24.2 132.8 945 85 5 Image Chart
2011 8 3 03 24.2 132.3 945 85 5 Image Chart
2011 8 3 06 24.3 132.1 945 85 5 Image Chart
2011 8 3 09 24.3 131.7 945 85 5 Image Chart
2011 8 3 12 24.4 131.4 945 85 5 Image Chart
2011 8 3 15 24.5 130.9 945 85 5 Image Chart
2011 8 3 18 24.5 130.5 945 85 5 Image Chart
2011 8 3 21 24.6 130.1 945 85 5 Image Chart
2011 8 4 00 24.7 129.6 945 85 5 Image Chart
2011 8 4 03 24.7 129.4 945 85 5 Image Chart
2011 8 4 06 24.7 129.2 945 85 5 Image Chart
2011 8 4 09 24.8 128.9 945 85 5 Image Chart
2011 8 4 12 24.9 128.7 945 85 5 Image Chart
2011 8 4 15 25.0 128.5 945 85 5 Image Chart
2011 8 4 18 25.0 128.2 945 85 5 Image Chart
2011 8 4 21 25.1 128.0 945 85 5 Image Chart
2011 8 5 00 25.3 127.8 945 85 5 Image Chart
2011 8 5 03 25.5 127.4 945 85 5 Image Chart
2011 8 5 06 25.7 127.3 945 85 5 Image Chart
2011 8 5 09 25.8 127.1 945 85 5 Image Chart
2011 8 5 12 26.1 127.0 950 80 5 Image Chart
2011 8 5 13 26.3 126.8 950 80 5 Image Chart
2011 8 5 15 26.4 126.6 950 80 5 Image Chart
2011 8 5 18 26.5 126.3 950 80 5 Image Chart
2011 8 5 21 27.0 126.2 955 75 5 Image Chart
2011 8 6 00 27.6 125.8 955 75 5 Image Chart
2011 8 6 03 28.1 125.5 955 75 5 Image Chart
2011 8 6 06 28.5 125.3 960 70 5 Image Chart
2011 8 6 09 29.0 125.1 960 70 5 Image Chart
2011 8 6 12 29.4 125.0 965 65 5 Image Chart
2011 8 6 18 30.5 124.7 965 65 5 Image Chart
2011 8 7 00 31.9 124.4 970 65 5 Image Chart
2011 8 7 06 33.2 124.1 975 60 4 Image Chart
2011 8 7 12 34.6 123.9 975 60 4 Image Chart
2011 8 7 18 35.8 123.6 980 55 4 Image Chart
2011 8 8 00 37.4 123.9 980 55 4 Image Chart
2011 8 8 06 38.6 124.3 985 50 4 Image Chart
2011 8 8 12 40.6 124.7 990 40 3 Image Chart
2011 8 8 18 42.4 125.1 992 35 3 Image Chart
2011 8 9 00 44.3 126.5 996 0 2 Image Chart
2011 8 9 06 45.6 128.4 996 0 2 Image Chart
2011 8 9 12 46.5 129.6 996 0 6 Image Chart
2011 8 9 18 47.3 131.5 994 0 6 Image Chart
2011 8 10 00 48.1 133.6 992 0 6 Image Chart
2011 8 10 06 48.7 135.1 990 0 6 Image Chart
2011 8 10 12 49.6 137.5 988 0 6 Image Chart
2011 8 10 18 49.7 139.8 984 0 6 Image Chart
2011 8 11 00 50.0 141.1 982 0 6 Image Chart
2011 8 11 06 50.1 142.1 982 0 6 Image Chart
2011 8 11 12 50.1 142.8 982 0 6 Image Chart
2011 8 11 18 49.8 144.0 984 0 6 Image Chart
2011 8 12 00 49.7 145.1 986 0 6 Image Chart
2011 8 12 06 50.9 147.4 986 0 6 Image Chart
2011 8 12 12 52.7 147.5 986 0 6 Image Chart
2011 8 12 18 54.4 147.2 984 0 6 Image Chart
2011 8 13 00 55.0 145.5 984 0 6 Image Chart
2011 8 13 06 55.0 145.8 984 0 6 Image Chart
2011 8 13 12 55.0 146.7 986 0 6 Image Chart
2011 8 13 18 55.3 147.6 988 0 6 Image Chart
2011 8 14 00 55.7 147.7 992 0 6 Image Chart
2011 8 14 06 56.3 148.1 994 0 6 Image Chart
2011 8 14 12 56.9 148.1 994 0 6 Image Chart
2011 8 14 18 57.3 147.5 996 0 6 Image Chart
2011 8 15 00 57.4 147.0 996 0 6 Image Chart
2011 8 15 06 57.4 146.3 998 0 6 Image Chart
2011 8 15 12 57.5 146.0 1000 0 6 Image Chart
Japan Meteorological Agency Best Track Data | Correction Date : 2011-09-26
< Typhoon 201108 2011 Season Typhoon 201110 >

Help